sensor_id;sensor_type;location;lat;lon;timestamp;pressure;altitude;pressure_sealevel;temperature;humidity
73316;BME280;61545;53.726;-0.444;2023-02-28T00:01:30;1031.4;;;4.7;100.0
73316;BME280;61545;53.726;-0.444;2023-02-28T00:06:30;1031.4;;;4.7;100.0
73316;BME280;61545;53.726;-0.444;2023-02-28T00:11:30;1031.4;;;4.7;100.0
73316;BME280;61545;53.726;-0.444;2023-02-28T00:16:30;1031.4;;;4.7;100.0
73316;BME280;61545;53.726;-0.444;2023-02-28T00:21:30;1031.4;;;4.7;100.0
73316;BME280;61545;53.726;-0.444;2023-02-28T00:26:30;1031.5;;;4.6;100.0
73316;BME280;61545;53.726;-0.444;2023-02-28T00:31:30;1031.5;;;4.7;100.0
73316;BME280;61545;53.726;-0.444;2023-02-28T00:36:30;1031.5;;;4.7;100.0
73316;BME280;61545;53.726;-0.444;2023-02-28T00:41:30;1031.5;;;4.7;100.0
73316;BME280;61545;53.726;-0.444;2023-02-28T00:46:30;1031.6;;;4.5;100.0
73316;BME280;61545;53.726;-0.444;2023-02-28T00:51:30;1031.7;;;4.7;100.0
73316;BME280;61545;53.726;-0.444;2023-02-28T00:56:30;1031.6;;;4.7;100.0
73316;BME280;61545;53.726;-0.444;2023-02-28T01:01:30;1031.6;;;4.7;100.0
73316;BME280;61545;53.726;-0.444;2023-02-28T01:06:30;1031.6;;;4.5;100.0
73316;BME280;61545;53.726;-0.444;2023-02-28T01:11:30;1031.6;;;4.5;100.0
73316;BME280;61545;53.726;-0.444;2023-02-28T01:16:30;1031.5;;;4.5;100.0
73316;BME280;61545;53.726;-0.444;2023-02-28T01:21:31;1031.5;;;4.5;100.0
73316;BME280;61545;53.726;-0.444;2023-02-28T01:26:30;1031.6;;;4.4;100.0
73316;BME280;61545;53.726;-0.444;2023-02-28T01:31:30;1031.6;;;4.5;100.0
73316;BME280;61545;53.726;-0.444;2023-02-28T01:36:30;1031.7;;;4.2;100.0
73316;BME280;61545;53.726;-0.444;2023-02-28T01:41:31;1031.6;;;4.3;100.0
73316;BME280;61545;53.726;-0.444;2023-02-28T01:46:31;1031.6;;;4.4;100.0
73316;BME280;61545;53.726;-0.444;2023-02-28T01:51:32;1031.6;;;4.3;100.0
73316;BME280;61545;53.726;-0.444;2023-02-28T01:56:32;1031.5;;;4.5;100.0
73316;BME280;61545;53.726;-0.444;2023-02-28T02:01:30;1031.5;;;4.5;100.0
73316;BME280;61545;53.726;-0.444;2023-02-28T02:11:30;1031.5;;;4.4;100.0
73316;BME280;61545;53.726;-0.444;2023-02-28T02:16:36;1031.4;;;4.5;100.0
73316;BME280;61545;53.726;-0.444;2023-02-28T02:21:54;1031.4;;;4.6;100.0
73316;BME280;61545;53.726;-0.444;2023-02-28T02:26:51;1031.3;;;4.6;100.0
73316;BME280;61545;53.726;-0.444;2023-02-28T02:31:42;1031.3;;;4.7;100.0
73316;BME280;61545;53.726;-0.444;2023-02-28T02:36:32;1031.2;;;4.7;100.0
73316;BME280;61545;53.726;-0.444;2023-02-28T02:41:33;1031.2;;;4.7;100.0
73316;BME280;61545;53.726;-0.444;2023-02-28T02:46:32;1031.3;;;4.7;100.0
73316;BME280;61545;53.726;-0.444;2023-02-28T02:51:30;1031.3;;;4.7;100.0
73316;BME280;61545;53.726;-0.444;2023-02-28T02:56:31;1031.2;;;4.7;100.0
73316;BME280;61545;53.726;-0.444;2023-02-28T03:01:31;1031.3;;;4.7;100.0
73316;BME280;61545;53.726;-0.444;2023-02-28T03:06:30;1031.3;;;4.7;100.0
73316;BME280;61545;53.726;-0.444;2023-02-28T03:11:30;1031.3;;;4.7;100.0
73316;BME280;61545;53.726;-0.444;2023-02-28T03:16:34;1031.3;;;4.8;100.0
73316;BME280;61545;53.726;-0.444;2023-02-28T03:21:32;1031.2;;;4.8;100.0
73316;BME280;61545;53.726;-0.444;2023-02-28T03:26:30;1031.2;;;4.8;100.0
73316;BME280;61545;53.726;-0.444;2023-02-28T03:31:32;1031.3;;;4.8;100.0
73316;BME280;61545;53.726;-0.444;2023-02-28T03:36:32;1031.3;;;4.8;100.0
73316;BME280;61545;53.726;-0.444;2023-02-28T03:41:31;1031.4;;;4.8;100.0
73316;BME280;61545;53.726;-0.444;2023-02-28T03:46:31;1031.3;;;4.9;100.0
73316;BME280;61545;53.726;-0.444;2023-02-28T03:51:30;1031.3;;;unknown;100.0
73316;BME280;61545;53.726;-0.444;2023-02-28T03:56:32;1031.3;;;4.8;100.0
73316;BME280;61545;53.726;-0.444;2023-02-28T04:01:32;1031.3;;;4.8;100.0
73316;BME280;61545;53.726;-0.444;2023-02-28T04:06:31;1031.3;;;4.8;100.0
73316;BME280;61545;53.726;-0.444;2023-02-28T04:11:33;1031.3;;;4.8;100.0
73316;BME280;61545;53.726;-0.444;2023-02-28T04:16:30;1031.3;;;4.8;100.0
73316;BME280;61545;53.726;-0.444;2023-02-28T04:21:30;1031.2;;;4.8;100.0
73316;BME280;61545;53.726;-0.444;2023-02-28T04:26:30;1031.3;;;4.8;100.0
73316;BME280;61545;53.726;-0.444;2023-02-28T04:31:30;1031.3;;;4.8;100.0
73316;BME280;61545;53.726;-0.444;2023-02-28T04:36:30;1031.4;;;4.8;100.0
73316;BME280;61545;53.726;-0.444;2023-02-28T04:41:30;1031.3;;;4.8;100.0
73316;BME280;61545;53.726;-0.444;2023-02-28T04:46:30;1031.3;;;4.8;100.0
73316;BME280;61545;53.726;-0.444;2023-02-28T04:51:30;1031.3;;;4.8;100.0
73316;BME280;61545;53.726;-0.444;2023-02-28T04:56:30;1031.3;;;4.8;100.0
73316;BME280;61545;53.726;-0.444;2023-02-28T05:01:31;1031.3;;;unknown;100.0
73316;BME280;61545;53.726;-0.444;2023-02-28T05:06:31;1031.3;;;4.8;100.0
73316;BME280;61545;53.726;-0.444;2023-02-28T05:11:31;1031.3;;;4.9;100.0
73316;BME280;61545;53.726;-0.444;2023-02-28T05:16:30;1031.3;;;4.8;100.0
73316;BME280;61545;53.726;-0.444;2023-02-28T05:21:31;1031.3;;;4.8;100.0
73316;BME280;61545;53.726;-0.444;2023-02-28T05:26:30;1031.3;;;4.8;100.0
73316;BME280;61545;53.726;-0.444;2023-02-28T05:31:30;1031.4;;;4.9;100.0
73316;BME280;61545;53.726;-0.444;2023-02-28T05:36:30;1031.4;;;4.8;100.0
73316;BME280;61545;53.726;-0.444;2023-02-28T05:41:30;1031.4;;;4.8;100.0
73316;BME280;61545;53.726;-0.444;2023-02-28T05:46:30;1031.4;;;4.9;100.0
73316;BME280;61545;53.726;-0.444;2023-02-28T05:51:30;1031.4;;;4.9;100.0
73316;BME280;61545;53.726;-0.444;2023-02-28T05:56:30;1031.4;;;4.9;100.0
73316;BME280;61545;53.726;-0.444;2023-02-28T06:01:32;1031.4;;;4.8;100.0
73316;BME280;61545;53.726;-0.444;2023-02-28T06:06:30;1031.3;;;4.9;100.0
73316;BME280;61545;53.726;-0.444;2023-02-28T06:11:30;1031.4;;;4.8;100.0
73316;BME280;61545;53.726;-0.444;2023-02-28T06:16:32;1031.4;;;4.8;100.0
73316;BME280;61545;53.726;-0.444;2023-02-28T06:21:30;1031.4;;;4.9;100.0
73316;BME280;61545;53.726;-0.444;2023-02-28T06:26:30;1031.4;;;4.9;100.0
73316;BME280;61545;53.726;-0.444;2023-02-28T06:31:30;1031.4;;;4.9;100.0
73316;BME280;61545;53.726;-0.444;2023-02-28T06:36:30;1031.4;;;4.9;100.0
73316;BME280;61545;53.726;-0.444;2023-02-28T06:41:30;1031.4;;;5.0;100.0
73316;BME280;61545;53.726;-0.444;2023-02-28T06:46:30;1031.4;;;5.0;100.0
73316;BME280;61545;53.726;-0.444;2023-02-28T06:51:30;1031.4;;;5.0;100.0
73316;BME280;61545;53.726;-0.444;2023-02-28T06:56:30;1031.4;;;5.0;100.0
73316;BME280;61545;53.726;-0.444;2023-02-28T07:01:30;1031.4;;;5.0;100.0
73316;BME280;61545;53.726;-0.444;2023-02-28T07:06:30;1031.4;;;5.0;100.0
73316;BME280;61545;53.726;-0.444;2023-02-28T07:11:30;1031.5;;;5.0;100.0
73316;BME280;61545;53.726;-0.444;2023-02-28T07:16:30;1031.5;;;5.0;100.0
73316;BME280;61545;53.726;-0.444;2023-02-28T07:21:30;1031.5;;;5.0;100.0
73316;BME280;61545;53.726;-0.444;2023-02-28T07:26:30;1031.5;;;5.0;100.0
73316;BME280;61545;53.726;-0.444;2023-02-28T07:31:30;1031.5;;;5.0;100.0
73316;BME280;61545;53.726;-0.444;2023-02-28T07:36:30;1031.6;;;5.1;100.0
73316;BME280;61545;53.726;-0.444;2023-02-28T07:41:30;1031.6;;;5.2;100.0
73316;BME280;61545;53.726;-0.444;2023-02-28T07:46:30;1031.5;;;5.2;100.0
73316;BME280;61545;53.726;-0.444;2023-02-28T07:51:30;1031.6;;;5.1;100.0
73316;BME280;61545;53.726;-0.444;2023-02-28T07:56:30;1031.6;;;5.2;100.0
73316;BME280;61545;53.726;-0.444;2023-02-28T08:01:30;1031.6;;;5.2;100.0
73316;BME280;61545;53.726;-0.444;2023-02-28T08:06:30;1031.6;;;5.2;100.0
73316;BME280;61545;53.726;-0.444;2023-02-28T08:11:30;1031.6;;;5.2;100.0
73316;BME280;61545;53.726;-0.444;2023-02-28T08:16:30;1031.6;;;5.3;100.0
73316;BME280;61545;53.726;-0.444;2023-02-28T08:21:30;1031.7;;;5.3;100.0
73316;BME280;61545;53.726;-0.444;2023-02-28T08:26:30;1031.7;;;5.3;100.0
73316;BME280;61545;53.726;-0.444;2023-02-28T08:31:30;1031.7;;;5.3;100.0
73316;BME280;61545;53.726;-0.444;2023-02-28T08:36:30;1031.8;;;5.3;100.0
73316;BME280;61545;53.726;-0.444;2023-02-28T08:41:30;1031.8;;;5.3;100.0
73316;BME280;61545;53.726;-0.444;2023-02-28T08:46:30;1031.8;;;5.3;100.0
73316;BME280;61545;53.726;-0.444;2023-02-28T08:51:30;1031.8;;;5.4;100.0
73316;BME280;61545;53.726;-0.444;2023-02-28T08:56:30;1031.7;;;5.5;100.0
73316;BME280;61545;53.726;-0.444;2023-02-28T09:01:30;1031.7;;;5.6;100.0
73316;BME280;61545;53.726;-0.444;2023-02-28T09:06:30;1031.8;;;5.6;100.0
73316;BME280;61545;53.726;-0.444;2023-02-28T09:11:30;1031.8;;;5.6;100.0
73316;BME280;61545;53.726;-0.444;2023-02-28T09:16:30;1031.8;;;6.2;100.0
73316;BME280;61545;53.726;-0.444;2023-02-28T09:21:30;1031.8;;;6.8;100.0
73316;BME280;61545;53.726;-0.444;2023-02-28T09:26:30;1031.9;;;6.5;100.0
73316;BME280;61545;53.726;-0.444;2023-02-28T09:31:30;1031.9;;;unknown;100.0
73316;BME280;61545;53.726;-0.444;2023-02-28T09:36:30;1031.8;;;6.0;100.0
73316;BME280;61545;53.726;-0.444;2023-02-28T09:41:35;1031.9;;;5.9;100.0
73316;BME280;61545;53.726;-0.444;2023-02-28T09:46:32;1031.9;;;6.0;100.0
73316;BME280;61545;53.726;-0.444;2023-02-28T09:51:36;1031.9;;;6.0;100.0
73316;BME280;61545;53.726;-0.444;2023-02-28T09:56:33;1031.9;;;6.4;100.0
73316;BME280;61545;53.726;-0.444;2023-02-28T10:01:34;1031.8;;;6.5;100.0
73316;BME280;61545;53.726;-0.444;2023-02-28T10:06:33;1031.9;;;6.3;100.0
73316;BME280;61545;53.726;-0.444;2023-02-28T10:11:32;1031.8;;;6.4;100.0
73316;BME280;61545;53.726;-0.444;2023-02-28T10:16:31;1031.9;;;6.7;100.0
73316;BME280;61545;53.726;-0.444;2023-02-28T10:21:33;1031.9;;;6.7;100.0
73316;BME280;61545;53.726;-0.444;2023-02-28T10:26:31;1031.9;;;6.7;100.0
73316;BME280;61545;53.726;-0.444;2023-02-28T10:31:30;1031.9;;;6.6;100.0
73316;BME280;61545;53.726;-0.444;2023-02-28T10:36:30;1031.8;;;6.5;100.0
73316;BME280;61545;53.726;-0.444;2023-02-28T10:41:31;1031.9;;;unknown;100.0
73316;BME280;61545;53.726;-0.444;2023-02-28T10:46:30;1031.9;;;6.4;100.0
73316;BME280;61545;53.726;-0.444;2023-02-28T10:51:38;1031.9;;;unknown;100.0
73316;BME280;61545;53.726;-0.444;2023-02-28T10:56:30;1031.8;;;6.5;100.0
73316;BME280;61545;53.726;-0.444;2023-02-28T11:01:35;1031.8;;;6.5;100.0
73316;BME280;61545;53.726;-0.444;2023-02-28T11:06:31;1031.8;;;6.8;100.0
73316;BME280;61545;53.726;-0.444;2023-02-28T11:11:31;1031.8;;;6.8;100.0
73316;BME280;61545;53.726;-0.444;2023-02-28T11:16:32;1031.7;;;6.8;100.0
73316;BME280;61545;53.726;-0.444;2023-02-28T11:21:32;1031.7;;;6.9;100.0
73316;BME280;61545;53.726;-0.444;2023-02-28T11:26:40;1031.6;;;unknown;100.0
73316;BME280;61545;53.726;-0.444;2023-02-28T11:31:30;1031.6;;;6.8;100.0
73316;BME280;61545;53.726;-0.444;2023-02-28T11:36:31;1031.6;;;6.7;100.0
73316;BME280;61545;53.726;-0.444;2023-02-28T11:41:39;1031.6;;;6.5;100.0
73316;BME280;61545;53.726;-0.444;2023-02-28T11:46:33;1031.5;;;6.7;100.0
73316;BME280;61545;53.726;-0.444;2023-02-28T11:51:32;1031.4;;;unknown;100.0
73316;BME280;61545;53.726;-0.444;2023-02-28T11:56:32;1031.3;;;7.4;100.0
73316;BME280;61545;53.726;-0.444;2023-02-28T12:01:37;1031.3;;;7.2;100.0
73316;BME280;61545;53.726;-0.444;2023-02-28T12:06:32;1031.2;;;7.2;100.0
73316;BME280;61545;53.726;-0.444;2023-02-28T12:11:36;1031.1;;;7.2;100.0
73316;BME280;61545;53.726;-0.444;2023-02-28T12:16:42;1031.1;;;7.1;100.0
73316;BME280;61545;53.726;-0.444;2023-02-28T12:21:35;1031.2;;;6.8;100.0
73316;BME280;61545;53.726;-0.444;2023-02-28T12:26:34;1031.2;;;6.5;100.0
73316;BME280;61545;53.726;-0.444;2023-02-28T12:31:31;1031.1;;;6.5;100.0
73316;BME280;61545;53.726;-0.444;2023-02-28T12:36:30;1031.1;;;6.7;100.0
73316;BME280;61545;53.726;-0.444;2023-02-28T12:41:34;1030.9;;;7.1;100.0
73316;BME280;61545;53.726;-0.444;2023-02-28T12:46:32;1030.9;;;7.5;100.0
73316;BME280;61545;53.726;-0.444;2023-02-28T12:51:30;1030.8;;;7.5;100.0
73316;BME280;61545;53.726;-0.444;2023-02-28T12:56:35;1030.8;;;7.1;100.0
73316;BME280;61545;53.726;-0.444;2023-02-28T13:01:55;1030.8;;;7.0;100.0
73316;BME280;61545;53.726;-0.444;2023-02-28T13:06:39;1030.8;;;6.8;100.0
73316;BME280;61545;53.726;-0.444;2023-02-28T13:11:31;1030.8;;;6.9;100.0
73316;BME280;61545;53.726;-0.444;2023-02-28T13:17:02;1030.7;;;6.8;100.0
73316;BME280;61545;53.726;-0.444;2023-02-28T13:21:30;1030.7;;;7.0;100.0
73316;BME280;61545;53.726;-0.444;2023-02-28T13:27:36;1030.7;;;6.8;100.0
73316;BME280;61545;53.726;-0.444;2023-02-28T13:31:30;1030.6;;;6.7;100.0
73316;BME280;61545;53.726;-0.444;2023-02-28T13:36:31;1030.6;;;6.7;100.0
73316;BME280;61545;53.726;-0.444;2023-02-28T13:41:47;1030.6;;;6.8;100.0
73316;BME280;61545;53.726;-0.444;2023-02-28T13:46:30;1030.6;;;6.8;100.0
73316;BME280;61545;53.726;-0.444;2023-02-28T13:51:38;1030.5;;;6.8;100.0
73316;BME280;61545;53.726;-0.444;2023-02-28T13:56:35;1030.5;;;6.8;100.0
73316;BME280;61545;53.726;-0.444;2023-02-28T14:01:36;1030.5;;;6.8;100.0
73316;BME280;61545;53.726;-0.444;2023-02-28T14:06:30;1030.5;;;6.7;100.0
73316;BME280;61545;53.726;-0.444;2023-02-28T14:11:32;1030.5;;;6.5;100.0
73316;BME280;61545;53.726;-0.444;2023-02-28T14:16:36;1030.5;;;6.7;100.0
73316;BME280;61545;53.726;-0.444;2023-02-28T14:21:31;1030.4;;;7.1;100.0
73316;BME280;61545;53.726;-0.444;2023-02-28T14:26:39;1030.5;;;6.6;100.0
73316;BME280;61545;53.726;-0.444;2023-02-28T14:31:34;1030.4;;;6.6;100.0
73316;BME280;61545;53.726;-0.444;2023-02-28T14:36:32;1030.4;;;6.5;100.0
73316;BME280;61545;53.726;-0.444;2023-02-28T14:41:31;1030.4;;;6.7;100.0
73316;BME280;61545;53.726;-0.444;2023-02-28T14:46:35;1030.4;;;6.6;100.0
73316;BME280;61545;53.726;-0.444;2023-02-28T14:51:30;1030.3;;;6.4;100.0
73316;BME280;61545;53.726;-0.444;2023-02-28T14:56:34;1030.4;;;6.2;100.0
73316;BME280;61545;53.726;-0.444;2023-02-28T15:01:30;1030.3;;;6.3;100.0
73316;BME280;61545;53.726;-0.444;2023-02-28T15:06:31;1030.3;;;6.5;100.0
73316;BME280;61545;53.726;-0.444;2023-02-28T15:11:30;1030.3;;;6.3;100.0
73316;BME280;61545;53.726;-0.444;2023-02-28T15:16:31;1030.3;;;6.3;100.0
73316;BME280;61545;53.726;-0.444;2023-02-28T15:21:31;1030.3;;;6.2;100.0
73316;BME280;61545;53.726;-0.444;2023-02-28T15:26:32;1030.3;;;6.2;100.0
73316;BME280;61545;53.726;-0.444;2023-02-28T15:31:32;1030.2;;;6.2;100.0
73316;BME280;61545;53.726;-0.444;2023-02-28T15:36:31;1030.3;;;6.0;100.0
73316;BME280;61545;53.726;-0.444;2023-02-28T15:41:37;1030.3;;;6.0;100.0
73316;BME280;61545;53.726;-0.444;2023-02-28T15:46:30;1030.3;;;6.0;100.0
73316;BME280;61545;53.726;-0.444;2023-02-28T15:51:32;1030.3;;;6.0;100.0
73316;BME280;61545;53.726;-0.444;2023-02-28T15:56:32;1030.3;;;5.9;100.0
73316;BME280;61545;53.726;-0.444;2023-02-28T16:01:32;1030.4;;;6.0;100.0
73316;BME280;61545;53.726;-0.444;2023-02-28T16:06:39;1030.4;;;6.0;100.0
73316;BME280;61545;53.726;-0.444;2023-02-28T16:11:30;1030.4;;;5.8;100.0
73316;BME280;61545;53.726;-0.444;2023-02-28T16:16:30;1030.4;;;5.9;100.0
73316;BME280;61545;53.726;-0.444;2023-02-28T16:21:30;1030.4;;;5.8;100.0
73316;BME280;61545;53.726;-0.444;2023-02-28T16:26:30;unavailable;;;unavailable;unavailable
73316;BME280;61545;53.726;-0.444;2023-02-28T16:31:30;1030.4;;;5.8;100.0
73316;BME280;61545;53.726;-0.444;2023-02-28T16:36:30;1030.5;;;5.8;100.0
73316;BME280;61545;53.726;-0.444;2023-02-28T16:41:30;1030.5;;;5.7;100.0
73316;BME280;61545;53.726;-0.444;2023-02-28T16:46:33;1030.4;;;5.6;100.0
73316;BME280;61545;53.726;-0.444;2023-02-28T16:51:30;1030.5;;;5.5;100.0
73316;BME280;61545;53.726;-0.444;2023-02-28T16:56:30;1030.5;;;5.5;100.0
73316;BME280;61545;53.726;-0.444;2023-02-28T17:01:30;1030.5;;;5.5;100.0
73316;BME280;61545;53.726;-0.444;2023-02-28T17:06:30;1030.6;;;5.5;100.0
73316;BME280;61545;53.726;-0.444;2023-02-28T17:11:30;1030.7;;;5.4;100.0
73316;BME280;61545;53.726;-0.444;2023-02-28T17:16:31;1030.7;;;5.3;100.0
73316;BME280;61545;53.726;-0.444;2023-02-28T17:21:31;1030.8;;;5.3;100.0
73316;BME280;61545;53.726;-0.444;2023-02-28T17:26:30;1030.8;;;5.3;100.0
73316;BME280;61545;53.726;-0.444;2023-02-28T17:31:30;1030.9;;;5.2;100.0
73316;BME280;61545;53.726;-0.444;2023-02-28T17:36:30;1030.9;;;unknown;100.0
73316;BME280;61545;53.726;-0.444;2023-02-28T17:41:30;1031.0;;;5.3;100.0
73316;BME280;61545;53.726;-0.444;2023-02-28T17:46:30;1031.1;;;5.2;100.0
73316;BME280;61545;53.726;-0.444;2023-02-28T17:51:30;1031.1;;;5.1;100.0
73316;BME280;61545;53.726;-0.444;2023-02-28T17:56:30;1031.1;;;5.2;100.0
73316;BME280;61545;53.726;-0.444;2023-02-28T18:01:30;1031.2;;;5.2;100.0
73316;BME280;61545;53.726;-0.444;2023-02-28T18:06:32;1031.2;;;5.2;100.0
73316;BME280;61545;53.726;-0.444;2023-02-28T18:11:30;1031.3;;;5.2;100.0
73316;BME280;61545;53.726;-0.444;2023-02-28T18:16:30;1031.4;;;5.2;100.0
73316;BME280;61545;53.726;-0.444;2023-02-28T18:21:30;1031.3;;;5.2;100.0
73316;BME280;61545;53.726;-0.444;2023-02-28T18:26:30;1031.3;;;5.2;100.0
73316;BME280;61545;53.726;-0.444;2023-02-28T18:31:30;1031.3;;;5.2;100.0
73316;BME280;61545;53.726;-0.444;2023-02-28T18:36:30;1031.3;;;5.2;100.0
73316;BME280;61545;53.726;-0.444;2023-02-28T18:41:30;1031.3;;;5.2;100.0
73316;BME280;61545;53.726;-0.444;2023-02-28T18:46:30;1031.3;;;5.2;100.0
73316;BME280;61545;53.726;-0.444;2023-02-28T18:51:30;1031.4;;;5.3;100.0
73316;BME280;61545;53.726;-0.444;2023-02-28T18:56:30;1031.5;;;5.2;100.0
73316;BME280;61545;53.726;-0.444;2023-02-28T19:01:30;1031.5;;;5.2;100.0
73316;BME280;61545;53.726;-0.444;2023-02-28T19:06:31;1031.5;;;5.2;100.0
73316;BME280;61545;53.726;-0.444;2023-02-28T19:11:31;1031.6;;;5.2;100.0
73316;BME280;61545;53.726;-0.444;2023-02-28T19:16:30;1031.6;;;5.2;100.0
73316;BME280;61545;53.726;-0.444;2023-02-28T19:21:30;1031.6;;;5.2;100.0
73316;BME280;61545;53.726;-0.444;2023-02-28T19:26:30;1031.6;;;5.2;100.0
73316;BME280;61545;53.726;-0.444;2023-02-28T19:31:30;1031.6;;;5.1;100.0
73316;BME280;61545;53.726;-0.444;2023-02-28T19:36:30;1031.6;;;5.1;100.0
73316;BME280;61545;53.726;-0.444;2023-02-28T19:41:30;1031.5;;;5.2;100.0
73316;BME280;61545;53.726;-0.444;2023-02-28T19:46:30;1031.5;;;5.2;100.0
73316;BME280;61545;53.726;-0.444;2023-02-28T19:51:30;1031.5;;;5.2;100.0
73316;BME280;61545;53.726;-0.444;2023-02-28T19:56:30;1031.5;;;5.1;100.0
73316;BME280;61545;53.726;-0.444;2023-02-28T20:01:30;1031.6;;;5.2;100.0
73316;BME280;61545;53.726;-0.444;2023-02-28T20:06:30;1031.5;;;5.1;100.0
73316;BME280;61545;53.726;-0.444;2023-02-28T20:11:30;1031.6;;;5.2;100.0
73316;BME280;61545;53.726;-0.444;2023-02-28T20:16:31;1031.6;;;5.2;100.0
73316;BME280;61545;53.726;-0.444;2023-02-28T20:21:30;1031.6;;;5.2;100.0
73316;BME280;61545;53.726;-0.444;2023-02-28T20:26:30;1031.7;;;5.2;100.0
73316;BME280;61545;53.726;-0.444;2023-02-28T20:31:30;1031.6;;;5.2;100.0
73316;BME280;61545;53.726;-0.444;2023-02-28T20:36:30;1031.6;;;5.2;100.0
73316;BME280;61545;53.726;-0.444;2023-02-28T20:41:30;1031.7;;;5.2;100.0
73316;BME280;61545;53.726;-0.444;2023-02-28T20:46:30;1031.7;;;5.2;100.0
73316;BME280;61545;53.726;-0.444;2023-02-28T20:51:30;1031.8;;;5.2;100.0
73316;BME280;61545;53.726;-0.444;2023-02-28T20:56:30;1031.7;;;5.2;100.0
73316;BME280;61545;53.726;-0.444;2023-02-28T21:01:30;1031.8;;;5.1;100.0
73316;BME280;61545;53.726;-0.444;2023-02-28T21:06:31;1031.7;;;5.1;100.0
73316;BME280;61545;53.726;-0.444;2023-02-28T21:11:32;1031.8;;;5.1;100.0
73316;BME280;61545;53.726;-0.444;2023-02-28T21:16:31;1031.7;;;5.1;100.0
73316;BME280;61545;53.726;-0.444;2023-02-28T21:21:31;1031.7;;;5.1;100.0
73316;BME280;61545;53.726;-0.444;2023-02-28T21:26:31;1031.7;;;5.1;100.0
73316;BME280;61545;53.726;-0.444;2023-02-28T21:31:31;1031.7;;;5.0;100.0
73316;BME280;61545;53.726;-0.444;2023-02-28T21:36:31;1031.7;;;5.0;100.0
73316;BME280;61545;53.726;-0.444;2023-02-28T21:41:30;1031.7;;;5.0;100.0
73316;BME280;61545;53.726;-0.444;2023-02-28T21:46:30;1031.6;;;5.0;100.0
73316;BME280;61545;53.726;-0.444;2023-02-28T21:51:30;1031.7;;;5.0;100.0
73316;BME280;61545;53.726;-0.444;2023-02-28T21:56:31;1031.7;;;5.0;100.0
73316;BME280;61545;53.726;-0.444;2023-02-28T22:01:31;1031.7;;;5.0;100.0
73316;BME280;61545;53.726;-0.444;2023-02-28T22:06:32;1031.8;;;5.0;100.0
73316;BME280;61545;53.726;-0.444;2023-02-28T22:11:31;1031.7;;;4.9;100.0
73316;BME280;61545;53.726;-0.444;2023-02-28T22:16:31;1031.8;;;4.9;100.0
73316;BME280;61545;53.726;-0.444;2023-02-28T22:21:30;1031.7;;;4.9;100.0
73316;BME280;61545;53.726;-0.444;2023-02-28T22:26:30;1031.8;;;4.8;100.0
73316;BME280;61545;53.726;-0.444;2023-02-28T22:31:32;1031.8;;;4.8;100.0
73316;BME280;61545;53.726;-0.444;2023-02-28T22:36:31;1031.8;;;4.8;100.0
73316;BME280;61545;53.726;-0.444;2023-02-28T22:41:30;1031.8;;;4.8;100.0
73316;BME280;61545;53.726;-0.444;2023-02-28T22:46:31;1031.8;;;4.8;100.0
73316;BME280;61545;53.726;-0.444;2023-02-28T22:51:30;1031.7;;;4.7;100.0
73316;BME280;61545;53.726;-0.444;2023-02-28T22:56:30;1031.7;;;4.7;100.0
73316;BME280;61545;53.726;-0.444;2023-02-28T23:01:31;1031.7;;;4.8;100.0
73316;BME280;61545;53.726;-0.444;2023-02-28T23:06:31;1031.7;;;4.8;100.0
73316;BME280;61545;53.726;-0.444;2023-02-28T23:11:32;1031.7;;;4.8;100.0
73316;BME280;61545;53.726;-0.444;2023-02-28T23:16:33;1031.7;;;4.9;100.0
73316;BME280;61545;53.726;-0.444;2023-02-28T23:21:31;1031.7;;;4.8;100.0
73316;BME280;61545;53.726;-0.444;2023-02-28T23:26:31;1031.7;;;4.8;100.0
73316;BME280;61545;53.726;-0.444;2023-02-28T23:31:30;1031.7;;;4.8;100.0
73316;BME280;61545;53.726;-0.444;2023-02-28T23:36:30;1031.7;;;4.8;100.0
73316;BME280;61545;53.726;-0.444;2023-02-28T23:41:30;1031.7;;;4.8;100.0
73316;BME280;61545;53.726;-0.444;2023-02-28T23:46:30;1031.6;;;4.8;100.0
73316;BME280;61545;53.726;-0.444;2023-02-28T23:51:30;1031.7;;;4.8;100.0
73316;BME280;61545;53.726;-0.444;2023-02-28T23:56:31;1031.8;;;4.8;100.0
